Quick Links (Output Below):   Max & Min Temps   /   Climate Reports   /   Zone Forecasts
River Forecasts   /   Forestry Forecasts   /   Aviation Forecasts   /   Radars   /   Features

Terminal Aerodrome Forecast (Jonesboro)

Pick a Site:
Arkadelphia | El Dorado | Fayetteville | Fort Smith | Harrison | Highfill | Hot Springs | Jonesboro
Little Rock | Monticello | Mountain Home | Pine Bluff | Texarkana
 Forecast 

KJBR 272333Z 2800/2824 06005KT P6SM SCT070 BKN120
     FM280600 VRB03KT P6SM SCT250
     FM281400 04008KT P6SM SCT050=


 Latest METARs (Observations) 
How to Decode METARs
01Z KJBR 280053Z AUTO 00000KT 10SM CLR 26/22 A3006 RMK AO2 SLP174
         T02610222
         
00Z KJBR 272353Z AUTO 07004KT 10SM CLR 26/22 A3005 RMK AO2 SLP170
         60000 T02610217 10328 20261 55002
         
***** Today's Observations (Above) *****


23Z KJBR 272253Z AUTO 07007KT 10SM FEW050 FEW070 27/21 A3004 RMK AO2
         RAB17E46 SLP168 P0000 T02720211
         
22Z KJBR 272153Z AUTO 03006KT 10SM SCT110 27/19 A3005 RMK AO2 SLP172
         T02670189
         
21Z KJBR 272053Z AUTO 06016KT 10SM BKN075 BKN095 27/21 A3005 RMK AO2
         PK WND 04027/1954 LTG DSNT S SLP173 T02720211 53003
         
20Z KJBR 271953Z AUTO 05022G31KT 10SM VCTS SCT031 BKN041 BKN048 28/21
         A3004 RMK AO2 PK WND 01032/1928 LTG DSNT N AND E SLP169
         T02780211
         
19Z KJBR 271853Z AUTO 34006KT 10SM FEW030 BKN075 33/23 A3002 RMK AO2
         LTG DSNT N SLP163 T03280233
         
18Z KJBR 271753Z AUTO 32008KT 10SM FEW027 32/23 A3004 RMK AO2 SLP169
         T03170233 10322 20244 58006
         
17Z KJBR 271653Z AUTO 30004KT 10SM FEW027 31/23 A3007 RMK AO2 SLP179
         T03110233
         
16Z KJBR 271553Z AUTO VRB04KT 10SM CLR 31/23 A3007 RMK AO2 SLP180
         T03110228
         
***** Yesterday's Observations (Above) *****


Back to Main Page
http://www.srh.noaa.gov/lzk/qfcst.php

USA.gov is the U.S. government's official web portal to all federal, state and local government web resources and services.